Time;durP1;ratioP1;P1;durP2;ratioP2;P2;SDS_P1;SDS_P2;PMS_P1;PMS_P2;Temp;Humidity;BMP_temperature;BMP_pressure;BME280_temperature;BME280_humidity;BME280_pressure;Samples;Min_cycle;Max_cycle;Signal;HPM_P1;HPM_P2
2022/06/26 00:00:32;;;;;;;6.72;3.50;;;;;;;;;;4740629;30;20062;-72
2022/06/26 00:03:02;;;;;;;7.15;3.22;;;;;;;;;;4770023;30;20070;-72
2022/06/26 00:05:33;;;;;;;6.28;2.80;;;;;;;;;;4740686;30;20194;-72
2022/06/26 00:08:04;;;;;;;6.50;3.08;;;;;;;;;;4776321;29;20045;-74
2022/06/26 00:10:34;;;;;;;6.97;2.83;;;;;;;;;;4793598;29;20515;-73
2022/06/26 00:13:04;;;;;;;7.75;2.95;;;;;;;;;;4839193;29;20066;-73
2022/06/26 00:15:35;;;;;;;6.03;3.30;;;;;;;;;;4838873;29;20152;-73
2022/06/26 00:18:05;;;;;;;6.38;3.08;;;;;;;;;;4841051;29;20065;-73
2022/06/26 00:20:36;;;;;;;5.18;2.78;;;;;;;;;;4827129;29;20068;-73
2022/06/26 00:23:06;;;;;;;7.45;3.13;;;;;;;;;;4857419;29;20522;-73
2022/06/26 00:25:37;;;;;;;7.93;3.03;;;;;;;;;;4841384;29;20059;-73
2022/06/26 00:28:07;;;;;;;6.30;2.92;;;;;;;;;;4877169;29;20057;-73
2022/06/26 00:30:37;;;;;;;5.70;2.60;;;;;;;;;;4879737;29;20556;-73
2022/06/26 00:33:08;;;;;;;4.75;2.47;;;;;;;;;;4848411;29;20067;-73
2022/06/26 00:35:38;;;;;;;5.43;2.80;;;;;;;;;;4894880;29;20057;-73
2022/06/26 00:38:08;;;;;;;6.50;2.83;;;;;;;;;;4894699;29;20064;-73
2022/06/26 00:40:40;;;;;;;5.65;2.72;;;;;;;;;;4857106;29;20061;-73
2022/06/26 00:43:11;;;;;;;7.47;3.00;;;;;;;;;;4857460;29;20065;-73
2022/06/26 00:45:41;;;;;;;6.15;2.70;;;;;;;;;;4784437;29;20581;-73
2022/06/26 00:48:11;;;;;;;5.05;2.30;;;;;;;;;;4766706;30;20063;-73
2022/06/26 00:50:41;;;;;;;6.15;2.45;;;;;;;;;;4766754;30;20064;-73
2022/06/26 00:53:11;;;;;;;6.10;2.80;;;;;;;;;;4766757;30;20060;-73
2022/06/26 00:55:41;;;;;;;5.47;2.42;;;;;;;;;;4784128;29;20067;-73
2022/06/26 00:58:12;;;;;;;5.43;2.60;;;;;;;;;;4787142;29;20055;-73
2022/06/26 01:00:43;;;;;;;5.18;2.40;;;;;;;;;;4802262;29;20070;-73
2022/06/26 01:03:13;;;;;;;6.22;2.78;;;;;;;;;;4802158;29;20058;-73
2022/06/26 01:05:44;;;;;;;7.53;2.83;;;;;;;;;;4802116;29;20611;-73
2022/06/26 01:08:14;;;;;;;5.38;2.40;;;;;;;;;;4802038;29;20420;-73
2022/06/26 01:10:51;;;;;;;6.10;2.72;;;;;;;;;;4802123;29;20066;-73
2022/06/26 01:13:21;;;;;;;5.32;2.60;;;;;;;;;;4802229;29;20059;-72
2022/06/26 01:15:51;;;;;;;4.63;2.38;;;;;;;;;;4784676;29;20173;-72
2022/06/26 01:18:22;;;;;;;6.35;2.63;;;;;;;;;;4794447;29;20071;-72
2022/06/26 01:20:54;;;;;;;6.07;2.67;;;;;;;;;;4805478;29;20067;-72
2022/06/26 01:23:26;;;;;;;5.57;2.60;;;;;;;;;;4799185;29;20055;-72
2022/06/26 01:25:56;;;;;;;5.80;2.08;;;;;;;;;;4809781;29;20447;-73
2022/06/26 01:28:26;;;;;;;5.57;2.83;;;;;;;;;;4826289;29;20069;-73
2022/06/26 01:30:57;;;;;;;6.18;2.33;;;;;;;;;;4829401;29;20053;-73
2022/06/26 01:33:27;;;;;;;6.55;2.85;;;;;;;;;;4859868;29;20050;-73
2022/06/26 01:35:58;;;;;;;4.18;2.28;;;;;;;;;;4859947;29;20065;-73
2022/06/26 01:38:28;;;;;;;8.75;2.70;;;;;;;;;;4823041;29;20069;-73
2022/06/26 01:40:59;;;;;;;4.50;2.25;;;;;;;;;;4778145;29;20058;-73
2022/06/26 01:43:35;;;;;;;8.18;3.08;;;;;;;;;;4820998;29;20058;-72
2022/06/26 01:46:07;;;;;;;6.90;2.42;;;;;;;;;;4794255;29;20205;-73
2022/06/26 01:48:42;;;;;;;5.30;2.45;;;;;;;;;;4786959;30;20444;-73
2022/06/26 01:51:13;;;;;;;4.75;2.42;;;;;;;;;;4804722;29;20538;-73
2022/06/26 01:53:46;;;;;;;6.72;2.78;;;;;;;;;;4805122;29;20415;-73
2022/06/26 01:56:16;;;;;;;4.80;2.38;;;;;;;;;;4819798;29;20055;-73
2022/06/26 01:58:50;;;;;;;6.28;2.25;;;;;;;;;;4804717;29;20051;-73
2022/06/26 02:01:26;;;;;;;6.90;3.22;;;;;;;;;;4804882;29;20071;-73
2022/06/26 02:03:57;;;;;;;6.35;2.67;;;;;;;;;;4822533;29;20050;-72
2022/06/26 02:06:31;;;;;;;8.73;2.88;;;;;;;;;;4822308;29;20503;-73
2022/06/26 02:09:01;;;;;;;5.63;2.95;;;;;;;;;;4828611;29;20062;-73
2022/06/26 02:14:24;;;;;;;6.03;2.63;;;;;;;;;;4781116;30;20068;-73
2022/06/26 02:17:00;;;;;;;6.18;2.58;;;;;;;;;;4817068;29;20050;-73
2022/06/26 02:19:30;;;;;;;14.30;3.10;;;;;;;;;;4777664;29;20069;-73
2022/06/26 02:22:01;;;;;;;4.82;2.60;;;;;;;;;;4807314;29;20066;-73
2022/06/26 02:24:32;;;;;;;5.28;2.38;;;;;;;;;;4760938;29;20181;-73
2022/06/26 02:27:03;;;;;;;6.57;2.60;;;;;;;;;;4786329;29;20562;-73
2022/06/26 02:29:33;;;;;;;5.43;2.88;;;;;;;;;;4813530;29;20054;-72
2022/06/26 02:32:03;;;;;;;5.90;2.65;;;;;;;;;;4822245;29;20058;-72
2022/06/26 02:34:34;;;;;;;4.60;2.13;;;;;;;;;;4837627;29;20070;-72
2022/06/26 02:37:05;;;;;;;6.13;2.75;;;;;;;;;;4822608;29;20067;-72
2022/06/26 02:39:35;;;;;;;5.05;2.72;;;;;;;;;;4840412;29;20065;-72
2022/06/26 02:42:06;;;;;;;5.63;2.78;;;;;;;;;;4853132;29;20053;-72
2022/06/26 02:44:38;;;;;;;5.07;2.40;;;;;;;;;;4815502;29;20065;-72
2022/06/26 02:47:08;;;;;;;4.30;2.10;;;;;;;;;;4767789;30;20098;-72
2022/06/26 02:49:39;;;;;;;4.57;2.50;;;;;;;;;;4779926;29;20051;-73
2022/06/26 02:52:10;;;;;;;7.13;2.35;;;;;;;;;;4785540;29;20240;-73
2022/06/26 02:54:40;;;;;;;5.07;2.25;;;;;;;;;;4777001;29;20056;-72
2022/06/26 02:57:11;;;;;;;5.28;2.53;;;;;;;;;;4767575;30;20059;-72
2022/06/26 02:59:41;;;;;;;6.35;2.58;;;;;;;;;;4767957;30;20548;-72
2022/06/26 03:02:11;;;;;;;5.50;2.20;;;;;;;;;;4735153;30;20060;-73
2022/06/26 03:04:53;;;;;;;5.55;2.30;;;;;;;;;;4733929;30;20064;-72
2022/06/26 03:07:24;;;;;;;4.03;1.95;;;;;;;;;;4732477;30;20076;-72
2022/06/26 03:09:55;;;;;;;4.85;2.20;;;;;;;;;;4734790;30;20064;-73
2022/06/26 03:12:27;;;;;;;4.45;1.92;;;;;;;;;;4749865;30;20542;-72
2022/06/26 03:14:57;;;;;;;4.78;2.28;;;;;;;;;;4735233;30;20840;-73
2022/06/26 03:17:29;;;;;;;6.63;2.47;;;;;;;;;;4747488;30;20511;-72
2022/06/26 03:20:06;;;;;;;5.75;2.72;;;;;;;;;;4749658;30;20060;-72
2022/06/26 03:22:36;;;;;;;5.40;2.60;;;;;;;;;;4761112;30;20067;-71
2022/06/26 03:25:07;;;;;;;4.55;2.10;;;;;;;;;;4767685;30;20067;-72
2022/06/26 03:27:40;;;;;;;5.38;2.42;;;;;;;;;;4777735;29;20060;-72
2022/06/26 03:30:12;;;;;;;4.63;2.00;;;;;;;;;;4749735;30;20060;-73
2022/06/26 03:32:49;;;;;;;4.68;2.00;;;;;;;;;;4721668;30;20056;-72
2022/06/26 03:35:19;;;;;;;4.97;2.10;;;;;;;;;;4737561;30;20061;-72
2022/06/26 03:37:50;;;;;;;5.30;1.83;;;;;;;;;;4754894;30;20060;-72
2022/06/26 03:40:20;;;;;;;4.13;2.10;;;;;;;;;;4761818;30;20067;-72
2022/06/26 03:42:51;;;;;;;5.18;2.33;;;;;;;;;;4766464;30;20055;-72
2022/06/26 03:45:22;;;;;;;4.03;2.10;;;;;;;;;;4766897;30;20086;-72
2022/06/26 03:47:52;;;;;;;3.63;1.90;;;;;;;;;;4756420;30;20064;-72
2022/06/26 03:50:22;;;;;;;5.45;2.42;;;;;;;;;;4728099;30;20061;-72
2022/06/26 03:52:52;;;;;;;5.28;2.45;;;;;;;;;;4714179;30;20053;-73
2022/06/26 03:55:22;;;;;;;4.10;1.85;;;;;;;;;;4763684;30;20104;-72
2022/06/26 03:57:54;;;;;;;4.43;1.75;;;;;;;;;;4749064;30;20063;-72
2022/06/26 04:00:25;;;;;;;3.85;1.65;;;;;;;;;;4752145;30;20063;-73
2022/06/26 04:02:56;;;;;;;5.00;2.25;;;;;;;;;;4748414;30;20052;-73
2022/06/26 04:05:29;;;;;;;4.22;1.48;;;;;;;;;;4746767;30;20182;-74
2022/06/26 04:07:59;;;;;;;4.60;1.95;;;;;;;;;;4748714;30;20079;-74
2022/06/26 04:10:38;;;;;;;3.33;1.60;;;;;;;;;;4754488;30;20060;-73
2022/06/26 04:13:28;;;;;;;4.20;1.52;;;;;;;;;;4748880;30;20056;-73
2022/06/26 04:15:58;;;;;;;3.45;1.55;;;;;;;;;;4687604;30;20197;-74
2022/06/26 04:18:29;;;;;;;2.75;1.52;;;;;;;;;;4696454;30;20061;-74
2022/06/26 04:21:00;;;;;;;3.08;1.77;;;;;;;;;;4684553;30;20062;-74
2022/06/26 04:23:30;;;;;;;2.70;1.42;;;;;;;;;;4691367;30;20061;-73
2022/06/26 04:26:06;;;;;;;4.88;1.52;;;;;;;;;;4678989;30;20058;-74
2022/06/26 04:28:36;;;;;;;2.70;1.38;;;;;;;;;;4642315;30;20066;-73
2022/06/26 04:31:08;;;;;;;4.00;1.80;;;;;;;;;;4615869;31;20064;-74
2022/06/26 04:33:40;;;;;;;3.08;1.58;;;;;;;;;;4675011;30;20054;-73
2022/06/26 04:36:12;;;;;;;3.00;1.63;;;;;;;;;;4713633;30;20053;-73
2022/06/26 04:38:42;;;;;;;10.57;1.80;;;;;;;;;;4713992;30;20069;-73
2022/06/26 04:44:10;;;;;;;3.33;1.60;;;;;;;;;;4716437;30;20462;-74
2022/06/26 04:46:43;;;;;;;5.10;2.10;;;;;;;;;;4732628;30;20060;-73
2022/06/26 04:49:14;;;;;;;4.03;1.85;;;;;;;;;;4763324;30;20107;-74
2022/06/26 04:51:45;;;;;;;4.05;1.88;;;;;;;;;;4778317;30;20071;-73
2022/06/26 04:54:39;;;;;;;3.13;1.50;;;;;;;;;;4767381;30;20060;-74
2022/06/26 04:57:10;;;;;;;5.60;1.80;;;;;;;;;;4786342;30;20063;-74
2022/06/26 04:59:40;;;;;;;5.00;1.77;;;;;;;;;;4769721;30;20464;-74
2022/06/26 05:02:12;;;;;;;3.22;1.80;;;;;;;;;;4737504;30;20536;-73
2022/06/26 05:04:58;;;;;;;3.33;1.60;;;;;;;;;;4751714;30;20063;-73
2022/06/26 05:07:47;;;;;;;2.92;1.48;;;;;;;;;;4727539;30;20122;-73
2022/06/26 05:10:19;;;;;;;4.05;1.77;;;;;;;;;;4748252;30;20060;-74
2022/06/26 05:12:53;;;;;;;3.70;1.67;;;;;;;;;;4761871;30;20060;-74
2022/06/26 05:15:38;;;;;;;3.33;1.70;;;;;;;;;;4734315;30;20075;-73
2022/06/26 05:18:14;;;;;;;3.90;1.90;;;;;;;;;;4751731;30;20524;-73
2022/06/26 05:20:45;;;;;;;4.40;1.75;;;;;;;;;;4702347;30;20049;-73
2022/06/26 05:23:15;;;;;;;3.83;1.70;;;;;;;;;;4732026;30;20093;-74
2022/06/26 05:25:57;;;;;;;3.88;1.80;;;;;;;;;;4708771;30;20060;-73
2022/06/26 05:28:28;;;;;;;3.83;1.67;;;;;;;;;;4716390;30;20064;-73
2022/06/26 05:30:57;;;;;;;3.85;1.80;;;;;;;;;;4716622;30;20530;-73
2022/06/26 05:33:33;;;;;;;3.30;1.80;;;;;;;;;;4716153;30;20065;-73
2022/06/26 05:36:06;;;;;;;3.28;1.67;;;;;;;;;;4724168;30;20053;-73
2022/06/26 05:38:38;;;;;;;3.97;1.48;;;;;;;;;;4733696;30;20452;-73
2022/06/26 05:41:09;;;;;;;4.68;1.80;;;;;;;;;;4734064;30;20061;-73
2022/06/26 05:43:41;;;;;;;4.00;1.80;;;;;;;;;;4733964;30;20549;-73
2022/06/26 05:46:12;;;;;;;3.95;1.92;;;;;;;;;;4729634;30;20076;-73
2022/06/26 05:48:55;;;;;;;3.45;1.48;;;;;;;;;;4703200;30;20450;-73
2022/06/26 05:51:36;;;;;;;5.07;1.80;;;;;;;;;;4699897;30;20057;-73
2022/06/26 05:54:21;;;;;;;3.03;1.40;;;;;;;;;;4741137;30;20060;-73
2022/06/26 05:57:19;;;;;;;4.72;1.85;;;;;;;;;;4686668;30;20175;-73
2022/06/26 06:00:11;;;;;;;3.67;1.70;;;;;;;;;;4768549;30;20052;-73
2022/06/26 06:02:46;;;;;;;3.92;1.83;;;;;;;;;;4769353;30;20071;-73
2022/06/26 06:05:20;;;;;;;3.90;1.67;;;;;;;;;;4729301;30;20069;-73
2022/06/26 06:07:53;;;;;;;3.90;1.70;;;;;;;;;;4716329;30;20061;-73
2022/06/26 06:10:25;;;;;;;3.28;1.88;;;;;;;;;;4765607;30;20056;-73
2022/06/26 06:12:55;;;;;;;5.97;2.03;;;;;;;;;;4754206;30;20064;-73
2022/06/26 06:15:26;;;;;;;4.05;1.80;;;;;;;;;;4771002;30;20059;-74
2022/06/26 06:17:58;;;;;;;3.63;1.55;;;;;;;;;;4768745;30;20063;-73
2022/06/26 06:20:29;;;;;;;2.97;1.65;;;;;;;;;;4739059;30;20063;-73
2022/06/26 06:23:06;;;;;;;3.72;1.70;;;;;;;;;;4747916;30;20052;-73
2022/06/26 06:25:39;;;;;;;3.50;1.73;;;;;;;;;;4734229;30;20053;-73
2022/06/26 06:28:10;;;;;;;3.40;1.60;;;;;;;;;;4733063;30;20057;-73
2022/06/26 06:30:43;;;;;;;3.17;1.60;;;;;;;;;;4747644;30;20078;-73
2022/06/26 06:33:20;;;;;;;3.88;1.90;;;;;;;;;;4708563;30;20179;-73
2022/06/26 06:35:54;;;;;;;3.47;1.80;;;;;;;;;;4689106;30;20521;-73
2022/06/26 06:38:28;;;;;;;4.65;2.10;;;;;;;;;;4750416;30;20460;-73
2022/06/26 06:41:04;;;;;;;3.33;1.60;;;;;;;;;;4732659;30;20675;-73
2022/06/26 06:43:47;;;;;;;4.07;1.83;;;;;;;;;;4750054;30;20056;-74
2022/06/26 06:46:32;;;;;;;3.60;1.73;;;;;;;;;;4719968;30;20099;-74
2022/06/26 06:49:14;;;;;;;3.63;1.85;;;;;;;;;;4803154;29;20055;-73
2022/06/26 06:51:52;;;;;;;3.80;1.65;;;;;;;;;;4785694;30;20062;-73
2022/06/26 06:54:25;;;;;;;4.13;1.83;;;;;;;;;;4785708;29;20051;-73
2022/06/26 06:56:56;;;;;;;4.53;2.20;;;;;;;;;;4764362;30;20052;-73
2022/06/26 06:59:27;;;;;;;4.53;1.83;;;;;;;;;;4779880;29;20498;-74
2022/06/26 07:01:57;;;;;;;3.28;1.50;;;;;;;;;;4764530;30;20060;-73
2022/06/26 07:04:28;;;;;;;5.18;1.75;;;;;;;;;;4728835;30;20060;-73
2022/06/26 07:07:00;;;;;;;4.43;1.90;;;;;;;;;;4731933;30;20545;-73
2022/06/26 07:09:30;;;;;;;3.88;1.73;;;;;;;;;;4746330;30;20060;-73
2022/06/26 07:12:02;;;;;;;3.95;1.63;;;;;;;;;;4737564;30;20083;-74
2022/06/26 07:14:32;;;;;;;3.38;1.85;;;;;;;;;;4733712;30;20057;-74
2022/06/26 07:17:03;;;;;;;3.58;1.58;;;;;;;;;;4718109;30;20068;-73
2022/06/26 07:19:33;;;;;;;4.88;1.90;;;;;;;;;;4762777;30;20056;-73
2022/06/26 07:22:05;;;;;;;3.78;1.90;;;;;;;;;;4746691;30;20056;-73
2022/06/26 07:24:38;;;;;;;4.00;1.90;;;;;;;;;;4781799;30;20059;-73
2022/06/26 07:27:32;;;;;;;5.07;1.70;;;;;;;;;;4756183;30;20513;-73
2022/06/26 07:30:04;;;;;;;3.50;1.73;;;;;;;;;;4782323;30;20497;-73
2022/06/26 07:32:41;;;;;;;3.67;1.60;;;;;;;;;;4735459;30;20067;-73
2022/06/26 07:35:12;;;;;;;4.20;1.98;;;;;;;;;;4767277;30;20052;-73
2022/06/26 07:37:42;;;;;;;3.83;1.85;;;;;;;;;;4731756;30;20064;-74
2022/06/26 07:40:13;;;;;;;3.65;1.92;;;;;;;;;;4714264;30;20068;-74
2022/06/26 07:42:44;;;;;;;4.47;1.50;;;;;;;;;;4683655;30;20471;-73
2022/06/26 07:45:15;;;;;;;4.22;1.80;;;;;;;;;;4693355;30;20061;-74
2022/06/26 07:47:58;;;;;;;3.72;1.77;;;;;;;;;;4699768;30;20159;-73
2022/06/26 07:50:29;;;;;;;4.13;1.98;;;;;;;;;;4707172;30;20057;-73
2022/06/26 07:52:59;;;;;;;4.22;1.85;;;;;;;;;;4710992;30;20503;-73
2022/06/26 07:55:31;;;;;;;4.10;1.80;;;;;;;;;;4714053;30;20061;-72
2022/06/26 07:58:06;;;;;;;3.50;1.80;;;;;;;;;;4745109;30;20057;-74
2022/06/26 08:00:37;;;;;;;5.30;1.90;;;;;;;;;;4717090;30;20533;-73
2022/06/26 08:03:09;;;;;;;4.57;2.15;;;;;;;;;;4714133;30;20459;-73
2022/06/26 08:05:41;;;;;;;4.63;1.83;;;;;;;;;;4714868;30;20061;-74
2022/06/26 08:08:12;;;;;;;4.00;1.98;;;;;;;;;;4731497;30;20553;-74
2022/06/26 08:10:42;;;;;;;4.20;2.08;;;;;;;;;;4742910;30;20067;-73
2022/06/26 08:13:13;;;;;;;5.45;2.38;;;;;;;;;;4749378;30;20056;-73
2022/06/26 08:15:43;;;;;;;4.70;2.17;;;;;;;;;;4760810;30;20067;-74
2022/06/26 08:18:13;;;;;;;6.05;2.30;;;;;;;;;;4760134;30;20067;-73
2022/06/26 08:20:45;;;;;;;4.88;2.40;;;;;;;;;;4771903;29;20059;-74
2022/06/26 08:23:15;;;;;;;6.45;2.55;;;;;;;;;;4793186;29;20059;-73
2022/06/26 08:25:46;;;;;;;7.15;3.25;;;;;;;;;;4791030;29;20081;-74
2022/06/26 08:28:16;;;;;;;7.65;3.53;;;;;;;;;;4830610;29;20062;-73
2022/06/26 08:30:47;;;;;;;6.75;2.90;;;;;;;;;;4820783;29;20061;-74
2022/06/26 08:33:18;;;;;;;5.53;2.42;;;;;;;;;;4820735;29;20065;-73
2022/06/26 08:35:49;;;;;;;5.68;2.25;;;;;;;;;;4821041;29;20419;-72
2022/06/26 08:38:18;;;;;;;8.48;2.88;;;;;;;;;;4820898;29;20066;-73
2022/06/26 08:40:50;;;;;;;5.53;2.40;;;;;;;;;;4821038;29;20058;-73
2022/06/26 08:43:22;;;;;;;6.93;3.03;;;;;;;;;;4790615;29;20055;-73
2022/06/26 08:46:04;;;;;;;10.23;4.47;;;;;;;;;;4820872;29;20146;-73
2022/06/26 08:48:44;;;;;;;11.35;4.60;;;;;;;;;;4790447;29;20054;-73
2022/06/26 08:51:15;;;;;;;14.48;4.38;;;;;;;;;;4820820;29;20063;-73
2022/06/26 08:53:46;;;;;;;11.85;4.47;;;;;;;;;;4820781;29;20058;-73
2022/06/26 08:56:17;;;;;;;11.23;4.82;;;;;;;;;;4808615;29;20059;-73
2022/06/26 08:58:47;;;;;;;11.38;4.60;;;;;;;;;;4826482;29;20617;-73
2022/06/26 09:01:18;;;;;;;11.52;4.45;;;;;;;;;;4809017;29;20057;-73
2022/06/26 09:03:48;;;;;;;11.93;4.47;;;;;;;;;;4838725;29;20073;-73
2022/06/26 09:06:19;;;;;;;10.27;3.83;;;;;;;;;;4838661;29;20057;-73
2022/06/26 09:08:49;;;;;;;9.68;3.53;;;;;;;;;;4838790;29;20080;-73
2022/06/26 09:11:20;;;;;;;8.25;3.72;;;;;;;;;;4823858;29;20076;-73
2022/06/26 09:13:53;;;;;;;9.43;3.92;;;;;;;;;;4838842;29;20635;-73
2022/06/26 09:16:31;;;;;;;8.95;3.70;;;;;;;;;;4838902;29;20065;-74
2022/06/26 09:19:12;;;;;;;10.52;3.92;;;;;;;;;;4838789;29;20058;-73
2022/06/26 09:21:43;;;;;;;9.85;4.30;;;;;;;;;;4808473;29;20054;-74
2022/06/26 09:24:17;;;;;;;8.30;4.20;;;;;;;;;;4808338;29;20166;-73
2022/06/26 09:27:05;;;;;;;7.00;3.20;;;;;;;;;;4838730;29;20046;-74
2022/06/26 09:29:36;;;;;;;6.55;3.05;;;;;;;;;;4820111;29;20542;-73
2022/06/26 09:32:13;;;;;;;5.60;2.25;;;;;;;;;;4820514;29;20059;-72
2022/06/26 09:34:49;;;;;;;4.68;2.13;;;;;;;;;;4787091;29;20127;-72
2022/06/26 09:37:21;;;;;;;4.30;2.28;;;;;;;;;;4803630;29;20103;-73
2022/06/26 09:40:16;;;;;;;4.60;2.10;;;;;;;;;;4814545;29;20061;-72
2022/06/26 09:42:46;;;;;;;4.25;2.08;;;;;;;;;;4841823;29;20058;-73
2022/06/26 09:45:16;;;;;;;5.22;2.17;;;;;;;;;;4841902;29;20423;-73
2022/06/26 09:47:47;;;;;;;3.95;2.00;;;;;;;;;;4841629;29;20058;-73
2022/06/26 09:50:18;;;;;;;3.92;2.03;;;;;;;;;;4841791;29;20054;-73
2022/06/26 09:52:49;;;;;;;7.15;2.22;;;;;;;;;;4841712;29;20503;-74
2022/06/26 09:55:19;;;;;;;4.53;2.15;;;;;;;;;;4841955;29;20434;-73
2022/06/26 09:57:51;;;;;;;6.32;2.17;;;;;;;;;;4841608;29;20057;-74
2022/06/26 10:00:21;;;;;;;4.53;2.40;;;;;;;;;;4841638;29;20069;-73
2022/06/26 10:08:36;;;;;;;4.25;1.80;;;;;;;;;;4825978;29;20077;-75
2022/06/26 10:11:08;;;;;;;6.63;2.30;;;;;;;;;;4826492;29;20064;-73
2022/06/26 10:13:40;;;;;;;7.65;2.50;;;;;;;;;;4859923;29;20169;-72
2022/06/26 10:16:39;;;;;;;5.72;2.17;;;;;;;;;;4828345;29;20054;-72
2022/06/26 10:19:28;;;;;;;5.32;2.40;;;;;;;;;;4859688;29;20056;-70
2022/06/26 10:21:58;;;;;;;16.88;4.80;;;;;;;;;;4859775;29;20154;-70
2022/06/26 10:24:28;;;;;;;89.90;35.20;;;;;;;;;;4859714;29;20061;-71
2022/06/26 10:27:03;;;;;;;29.40;8.32;;;;;;;;;;4859816;29;20060;-72
2022/06/26 10:29:41;;;;;;;92.53;36.40;;;;;;;;;;4844254;29;20057;-72
2022/06/26 10:32:22;;;;;;;41.70;12.30;;;;;;;;;;4859517;29;20066;-73
2022/06/26 10:34:59;;;;;;;30.63;7.85;;;;;;;;;;4859471;29;20053;-71
2022/06/26 10:37:41;;;;;;;31.83;8.32;;;;;;;;;;4844355;29;20549;-73
2022/06/26 10:43:19;;;;;;;27.45;6.60;;;;;;;;;;4848912;29;20049;-71
2022/06/26 10:45:50;;;;;;;19.85;5.82;;;;;;;;;;4879962;29;20049;-72
2022/06/26 10:48:24;;;;;;;13.10;5.10;;;;;;;;;;4879760;29;20060;-72
2022/06/26 10:51:02;;;;;;;15.35;5.40;;;;;;;;;;4879688;29;20060;-72
2022/06/26 10:53:41;;;;;;;18.70;6.13;;;;;;;;;;4828086;29;20053;-70
2022/06/26 10:56:12;;;;;;;24.80;8.18;;;;;;;;;;4840333;29;20061;-72
2022/06/26 10:58:48;;;;;;;21.00;7.13;;;;;;;;;;4840437;29;20163;-71
2022/06/26 11:01:20;;;;;;;33.63;9.93;;;;;;;;;;4840654;29;20069;-71
2022/06/26 11:03:51;;;;;;;26.17;7.85;;;;;;;;;;4810165;29;20053;-72
2022/06/26 11:06:27;;;;;;;28.75;7.95;;;;;;;;;;4840405;29;20068;-72
2022/06/26 11:08:57;;;;;;;30.63;8.82;;;;;;;;;;4825534;29;20062;-73
2022/06/26 11:11:32;;;;;;;33.08;9.40;;;;;;;;;;4840235;29;20066;-72
2022/06/26 11:14:08;;;;;;;33.65;9.70;;;;;;;;;;4840343;29;20468;-72
2022/06/26 11:16:43;;;;;;;30.00;8.82;;;;;;;;;;4840311;29;20049;-71
2022/06/26 11:19:25;;;;;;;27.65;8.82;;;;;;;;;;4840157;29;20070;-71
2022/06/26 11:22:12;;;;;;;26.70;8.88;;;;;;;;;;4840367;29;20419;-71
2022/06/26 11:24:52;;;;;;;26.67;7.93;;;;;;;;;;4840154;29;20069;-72
2022/06/26 11:27:29;;;;;;;31.55;8.55;;;;;;;;;;4781851;29;20446;-72
2022/06/26 11:30:00;;;;;;;27.20;9.27;;;;;;;;;;4840671;29;20065;-71
2022/06/26 11:32:31;;;;;;;21.27;7.22;;;;;;;;;;4877004;29;20518;-71
2022/06/26 11:35:01;;;;;;;22.42;6.50;;;;;;;;;;4878993;29;20065;-72
2022/06/26 11:37:35;;;;;;;21.80;6.70;;;;;;;;;;4877928;29;20405;-72
2022/06/26 11:40:17;;;;;;;15.70;6.28;;;;;;;;;;4877009;29;20061;-72
2022/06/26 11:42:55;;;;;;;22.27;6.85;;;;;;;;;;4879020;29;20045;-72
2022/06/26 11:45:32;;;;;;;40.88;11.93;;;;;;;;;;4846363;29;20397;-72
2022/06/26 11:48:07;;;;;;;39.40;10.50;;;;;;;;;;4878976;29;20056;-72
2022/06/26 11:50:38;;;;;;;42.15;10.65;;;;;;;;;;4878735;29;20404;-72
2022/06/26 11:53:08;;;;;;;50.45;16.25;;;;;;;;;;4878843;29;20049;-72
2022/06/26 11:55:49;;;;;;;48.38;13.25;;;;;;;;;;4876919;29;20053;-72
2022/06/26 11:58:23;;;;;;;50.50;15.40;;;;;;;;;;4878782;29;20057;-72
2022/06/26 12:01:12;;;;;;;56.28;14.82;;;;;;;;;;4861302;29;20057;-71
2022/06/26 12:03:50;;;;;;;39.22;11.60;;;;;;;;;;4878044;29;20056;-71
2022/06/26 12:06:39;;;;;;;40.80;10.73;;;;;;;;;;4878590;29;20053;-72
2022/06/26 12:09:20;;;;;;;35.67;11.18;;;;;;;;;;4861049;29;20056;-72
2022/06/26 12:11:53;;;;;;;46.47;11.43;;;;;;;;;;4876540;29;20061;-71
2022/06/26 12:14:26;;;;;;;36.88;10.77;;;;;;;;;;4845769;29;20421;-72
2022/06/26 12:17:00;;;;;;;35.50;10.98;;;;;;;;;;4861927;29;20061;-72
2022/06/26 12:19:39;;;;;;;36.55;11.07;;;;;;;;;;4878375;29;20045;-72
2022/06/26 12:22:09;;;;;;;35.17;11.48;;;;;;;;;;4830282;29;20504;-71
2022/06/26 12:24:50;;;;;;;43.15;12.60;;;;;;;;;;4861009;29;20517;-72
2022/06/26 12:27:21;;;;;;;33.83;11.48;;;;;;;;;;4876030;29;20417;-72
2022/06/26 12:29:51;;;;;;;35.70;11.73;;;;;;;;;;4876216;29;20056;-72
2022/06/26 12:32:21;;;;;;;29.55;9.75;;;;;;;;;;4830018;29;20065;-73
2022/06/26 12:34:51;;;;;;;13.85;5.53;;;;;;;;;;4846133;29;20053;-75
2022/06/26 12:37:22;;;;;;;18.95;6.72;;;;;;;;;;4876085;29;20056;-77
2022/06/26 12:39:52;;;;;;;20.55;6.43;;;;;;;;;;4876017;29;20057;-76
2022/06/26 12:42:22;;;;;;;36.28;11.23;;;;;;;;;;4853688;29;20060;-73
2022/06/26 12:44:53;;;;;;;31.45;9.55;;;;;;;;;;4856873;29;20054;-75
2022/06/26 12:47:23;;;;;;;12.25;5.68;;;;;;;;;;4838990;29;20443;-76
2022/06/26 12:49:54;;;;;;;9.70;4.30;;;;;;;;;;4793978;29;20392;-74
2022/06/26 12:52:25;;;;;;;8.73;4.50;;;;;;;;;;4838859;29;20061;-75
2022/06/26 12:54:54;;;;;;;13.50;5.00;;;;;;;;;;4820721;29;20054;-75
2022/06/26 12:57:25;;;;;;;25.13;9.80;;;;;;;;;;4805802;29;20065;-74
2022/06/26 12:59:55;;;;;;;11.85;4.75;;;;;;;;;;4820472;29;20066;-74
2022/06/26 13:02:26;;;;;;;5.82;2.72;;;;;;;;;;4790564;29;20070;-73
2022/06/26 13:04:56;;;;;;;5.15;2.75;;;;;;;;;;4820455;29;20065;-72
2022/06/26 13:07:26;;;;;;;6.13;2.78;;;;;;;;;;4790560;29;20050;-72
2022/06/26 13:09:59;;;;;;;5.30;2.72;;;;;;;;;;4820373;29;20066;-71
2022/06/26 13:12:30;;;;;;;6.35;2.65;;;;;;;;;;4777038;29;20447;-73
2022/06/26 13:15:00;;;;;;;8.07;3.40;;;;;;;;;;4839956;29;20534;-72
2022/06/26 13:17:30;;;;;;;6.70;3.33;;;;;;;;;;4842386;29;20049;-72
2022/06/26 13:20:01;;;;;;;8.73;3.05;;;;;;;;;;4841992;29;20058;-72
2022/06/26 13:22:32;;;;;;;12.48;6.63;;;;;;;;;;4840862;29;20066;-73
2022/06/26 13:25:03;;;;;;;10.30;5.22;;;;;;;;;;4851275;29;20060;-72
2022/06/26 13:27:34;;;;;;;21.67;10.65;;;;;;;;;;4860510;29;20053;-72
2022/06/26 13:30:05;;;;;;;7.53;4.18;;;;;;;;;;4814801;29;20509;-72
2022/06/26 13:32:37;;;;;;;8.75;5.30;;;;;;;;;;4870207;29;20557;-73
2022/06/26 13:35:09;;;;;;;9.02;4.43;;;;;;;;;;4890120;29;20068;-72
2022/06/26 13:37:40;;;;;;;8.18;4.05;;;;;;;;;;4899888;29;20045;-72
2022/06/26 13:40:11;;;;;;;6.80;3.75;;;;;;;;;;4899836;29;20051;-73
2022/06/26 13:42:42;;;;;;;9.30;4.25;;;;;;;;;;4899879;29;20049;-72
2022/06/26 13:45:12;;;;;;;11.32;5.82;;;;;;;;;;4899409;29;20059;-72
2022/06/26 13:47:43;;;;;;;9.40;4.35;;;;;;;;;;4897282;29;20496;-72
2022/06/26 13:50:13;;;;;;;9.45;4.18;;;;;;;;;;4878408;29;20067;-71
2022/06/26 13:52:43;;;;;;;9.05;3.97;;;;;;;;;;4878766;29;20061;-72
2022/06/26 13:55:14;;;;;;;8.48;4.50;;;;;;;;;;4829096;29;20053;-72
2022/06/26 13:57:44;;;;;;;8.65;3.97;;;;;;;;;;4860175;29;20059;-72
2022/06/26 14:00:15;;;;;;;9.80;4.43;;;;;;;;;;4860042;29;20531;-72
2022/06/26 14:02:45;;;;;;;8.52;4.45;;;;;;;;;;4860047;29;20076;-71
2022/06/26 14:05:16;;;;;;;10.57;4.35;;;;;;;;;;4841073;29;20053;-72
2022/06/26 14:07:46;;;;;;;11.10;4.88;;;;;;;;;;4859624;29;20061;-72
2022/06/26 14:10:17;;;;;;;8.38;4.28;;;;;;;;;;4796013;29;20054;-73
2022/06/26 14:12:47;;;;;;;9.45;4.53;;;;;;;;;;4841107;29;20526;-72
2022/06/26 14:15:17;;;;;;;12.15;5.55;;;;;;;;;;4841229;29;20077;-72
2022/06/26 14:17:48;;;;;;;10.82;5.78;;;;;;;;;;4840525;29;20050;-72
2022/06/26 14:20:18;;;;;;;9.38;4.50;;;;;;;;;;4777267;29;20061;-73
2022/06/26 14:25:55;;;;;;;10.43;4.53;;;;;;;;;;4777631;29;20065;-72
2022/06/26 14:28:27;;;;;;;8.18;3.88;;;;;;;;;;4849177;29;20057;-71
2022/06/26 14:30:58;;;;;;;;;;;;;;;;;;4796053;29;20061;-70
2022/06/26 14:33:29;;;;;;;10.75;5.07;;;;;;;;;;4782118;29;20340;-70
2022/06/26 14:36:02;;;;;;;8.65;4.35;;;;;;;;;;4837886;29;20522;-70
2022/06/26 14:38:34;;;;;;;9.70;3.97;;;;;;;;;;4822641;29;20376;-72
2022/06/26 14:41:09;;;;;;;10.80;4.03;;;;;;;;;;4822384;29;20062;-72
2022/06/26 14:43:42;;;;;;;10.73;4.82;;;;;;;;;;4771639;30;20051;-72
2022/06/26 14:46:12;;;;;;;9.18;4.43;;;;;;;;;;4771370;30;20528;-72
2022/06/26 14:48:43;;;;;;;9.68;4.18;;;;;;;;;;4768300;30;20060;-71
2022/06/26 14:51:13;;;;;;;10.25;5.40;;;;;;;;;;4753500;30;20056;-72
2022/06/26 14:53:43;;;;;;;8.70;4.65;;;;;;;;;;4768122;30;20079;-72
2022/06/26 14:56:17;;;;;;;12.52;7.10;;;;;;;;;;4739097;30;20370;-72
2022/06/26 14:58:47;;;;;;;9.93;4.88;;;;;;;;;;4801227;29;20054;-72
2022/06/26 15:01:18;;;;;;;10.30;5.05;;;;;;;;;;4804113;29;20103;-72
2022/06/26 15:03:48;;;;;;;10.32;4.80;;;;;;;;;;4804123;29;20055;-72
2022/06/26 15:06:19;;;;;;;9.93;5.28;;;;;;;;;;4834130;29;20061;-71
2022/06/26 15:08:49;;;;;;;12.43;4.97;;;;;;;;;;4829383;29;20209;-71
2022/06/26 15:11:19;;;;;;;8.85;4.75;;;;;;;;;;4822026;29;20213;-71
2022/06/26 15:13:50;;;;;;;11.80;5.82;;;;;;;;;;4822107;29;20057;-72
2022/06/26 15:16:20;;;;;;;15.80;7.30;;;;;;;;;;4822313;29;20063;-72
2022/06/26 15:18:52;;;;;;;9.60;5.15;;;;;;;;;;4832101;29;20064;-72
2022/06/26 15:21:22;;;;;;;13.32;5.43;;;;;;;;;;4853097;29;20421;-72
2022/06/26 15:23:54;;;;;;;11.30;4.80;;;;;;;;;;4876825;29;20085;-72
2022/06/26 15:26:24;;;;;;;10.55;5.32;;;;;;;;;;4876272;29;20402;-73
2022/06/26 15:28:56;;;;;;;10.00;5.60;;;;;;;;;;4876400;29;20120;-72